« Back
NWS Peachtree City, Ga » Text Product » ATL Terminal Aerodrome Forecast


Printer-friendly Version
Current Version              Previous Versions:   1  2  3  4  5  6  7  8  9  

Terminal Aerodrome Forecast

697
FTUS42 KFFC 271344 AAB
TAFATL
TAF AMD
KATL 271344Z 2714/2818 26009KT P6SM BKN015 OVC025
      TEMPO 2715/2716 P6SM SCT025
     FM271600 25006KT P6SM SCT035
     FM271800 24008KT P6SM SCT060 BKN120
     FM280200 25005KT P6SM SCT250
     FM281500 25007KT P6SM SCT040=



USA.gov is the U.S. government's official web portal to all federal, state and local government web resources and services.